Terminal Aerodrome Forecast
Issued by NWS Jacksonville, FL

Home | Current Version | Previous Version | Text Only | Print | Product List | Glossary On
Versions: 1 2 3 4 5 6 7 8 9 10 11 12 13 14 15
660
FTUS42 KJAX 101728
TAFGNV
TAF
KGNV 101728Z 1018/1118 28016G25KT P6SM SKC
     FM102200 27011G19KT P6SM SKC
     FM110000 26003KT P6SM SKC
     FM111300 VRB04KT P6SM SKC=

USA.gov is the U.S. government's official web portal to all federal, state and local government web resources and services.